首页
METAR-TAF:

METAR-TAF

机场 :

华盛顿杜勒斯国际机场

华盛顿, 弗吉尼亚州, 美国

纬度: 38-56-05N, 经度: 077-26-51W, 海拔: 95米

当前天气观测

该预报发布于29分钟前的01:52 UTC
风速6节,风向西转西北
温度 6°C
湿度 56%
气压 1024 hPa
能見度: 16.1公里
天空无云

METAR: KIAD 220152Z 30006KT 10SM CLR 06/M02 A3025 RMK AO2 SLP243 T00561017

时间: 22:21 (02:21 UTC)

预报

该预报发布于2小时和56分钟前的23:25 UTC
预报有效从22日的 00点(UTC)到 23日的 06点(UTC)
风速8节,风向西北
能見度: 10公里
少量云层高于6000英尺
少量云层高于25000英尺
从 22日的 0400点(UTC)
风速4节,风向西转西北
能見度: 10公里
少量云层高于14000英尺
少量云层高于25000英尺
从 22日的 1300点(UTC)
风速4节,风向西南
能見度: 10公里
少量云层高于11000英尺
少量云层高于25000英尺
从 22日的 1700点(UTC)
风速8节,风向
能見度: 10公里
少量云层高于12000英尺
散云层高于25000英尺

TAF: KIAD 212325Z 2200/2306 31008KT P6SM FEW060 FEW250 FM220400 30004KT P6SM FEW140 FEW250 FM221300 22004KT P6SM FEW110 FEW250 FM221700 19008KT P6SM FEW120 SCT250

超过4000个机场的气象观测和天气预报(METAR&TAF报告)。

可查询的气象台以黄色和红色小点在地图上表示。

将鼠标移到小点上方,可查看气象台名称。

然后点击查看天气观测和预报。

如需切换地图:点击带黑十字的绿色按钮放大地图;点击带横线的绿色按钮缩小地图;或者点击绿色箭头查看邻近地区的地图。


METAR-TAF: